Time;durP1;ratioP1;P1;durP2;ratioP2;P2;SDS_P1;SDS_P2;PMS_P1;PMS_P2;Temp;Humidity;BMP_temperature;BMP_pressure;BME280_temperature;BME280_humidity;BME280_pressure;Samples;Min_cycle;Max_cycle;Signal;HPM_P1;HPM_P2
2022/03/27 00:01:30;;;;;;;52.08;25.27;;;;;;;;;;6209779;23;20012;-53
2022/03/27 00:03:55;;;;;;;46.25;23.80;;;;;;;;;;6206899;23;20015;-49
2022/03/27 00:06:20;;;;;;;55.30;26.35;;;;;;;;;;6206204;23;20016;-48
2022/03/27 00:08:46;;;;;;;56.70;24.75;;;;;;;;;;6207553;23;20004;-50
2022/03/27 00:11:24;;;;;;;47.40;25.27;;;;;;;;;;6208944;23;20031;-52
2022/03/27 00:13:49;;;;;;;47.75;23.38;;;;;;;;;;6206923;23;20021;-51
2022/03/27 00:16:15;;;;;;;45.33;22.83;;;;;;;;;;6208774;23;20036;-53
2022/03/27 00:18:41;;;;;;;49.38;24.73;;;;;;;;;;6207420;23;20063;-53
2022/03/27 00:21:06;;;;;;;45.92;24.40;;;;;;;;;;6209790;23;20458;-51
2022/03/27 00:23:32;;;;;;;51.25;24.95;;;;;;;;;;6206031;23;21582;-51
2022/03/27 00:25:57;;;;;;;49.90;26.27;;;;;;;;;;6182822;23;20015;-50
2022/03/27 00:28:22;;;;;;;55.42;26.38;;;;;;;;;;6206632;23;20017;-54
2022/03/27 00:30:48;;;;;;;57.85;24.52;;;;;;;;;;6210805;23;20036;-52
2022/03/27 00:33:14;;;;;;;61.33;26.90;;;;;;;;;;6205812;23;20028;-53
2022/03/27 00:35:39;;;;;;;51.13;26.02;;;;;;;;;;6209279;23;20020;-53
2022/03/27 00:38:05;;;;;;;45.83;24.55;;;;;;;;;;6208238;23;20017;-53
2022/03/27 00:40:30;;;;;;;48.03;25.30;;;;;;;;;;6208450;23;20083;-48
2022/03/27 00:42:55;;;;;;;48.20;24.92;;;;;;;;;;6208210;23;20076;-48
2022/03/27 00:45:20;;;;;;;47.08;23.52;;;;;;;;;;6207446;23;20373;-52
2022/03/27 00:47:45;;;;;;;49.35;25.98;;;;;;;;;;6206317;23;20544;-51
2022/03/27 00:50:11;;;;;;;50.65;25.00;;;;;;;;;;6209451;23;20330;-52
2022/03/27 00:52:36;;;;;;;57.80;26.35;;;;;;;;;;6208524;23;20095;-49
2022/03/27 00:55:02;;;;;;;55.15;25.33;;;;;;;;;;6209632;23;20017;-53
2022/03/27 00:57:27;;;;;;;55.00;25.95;;;;;;;;;;6179322;23;20021;-49
2022/03/27 00:59:52;;;;;;;53.25;26.75;;;;;;;;;;6210086;23;20023;-47
2022/03/27 01:02:20;;;;;;;56.22;27.20;;;;;;;;;;6206386;23;20024;-50
2022/03/27 01:04:45;;;;;;;50.95;25.38;;;;;;;;;;6209746;23;20019;-51
2022/03/27 01:07:13;;;;;;;55.08;27.83;;;;;;;;;;6206666;23;20005;-49
2022/03/27 01:09:39;;;;;;;57.00;26.88;;;;;;;;;;6208690;23;20035;-50
2022/03/27 01:12:26;;;;;;;55.45;26.85;;;;;;;;;;6207587;23;20027;-50
2022/03/27 01:14:52;;;;;;;56.33;27.35;;;;;;;;;;6207386;23;20031;-50
2022/03/27 01:17:25;;;;;;;54.72;27.50;;;;;;;;;;6204497;23;20095;-49
2022/03/27 01:19:51;;;;;;;58.42;28.15;;;;;;;;;;6209579;23;20012;-47
2022/03/27 01:22:17;;;;;;;51.85;27.73;;;;;;;;;;6206355;23;20115;-50
2022/03/27 01:24:43;;;;;;;54.75;28.00;;;;;;;;;;6181957;23;20062;-50
2022/03/27 01:27:09;;;;;;;51.35;26.63;;;;;;;;;;6208028;23;20062;-50
2022/03/27 01:29:35;;;;;;;54.38;28.15;;;;;;;;;;6208590;23;20063;-51
2022/03/27 01:32:00;;;;;;;57.80;29.13;;;;;;;;;;6207942;23;20027;-50
2022/03/27 01:34:26;;;;;;;60.22;31.02;;;;;;;;;;6207369;23;20020;-50
2022/03/27 01:36:51;;;;;;;57.00;28.52;;;;;;;;;;6205073;23;20008;-51
2022/03/27 01:39:17;;;;;;;65.32;30.25;;;;;;;;;;6207480;23;20040;-52
2022/03/27 01:41:42;;;;;;;60.50;30.92;;;;;;;;;;6180533;23;20070;-49
2022/03/27 01:44:09;;;;;;;66.70;32.92;;;;;;;;;;6206783;23;20430;-47
2022/03/27 01:46:35;;;;;;;56.28;28.80;;;;;;;;;;6207638;23;20013;-49
2022/03/27 01:49:02;;;;;;;59.63;29.88;;;;;;;;;;6208635;23;20087;-48
2022/03/27 01:51:28;;;;;;;54.97;29.17;;;;;;;;;;6207110;23;20016;-49
2022/03/27 01:53:53;;;;;;;64.43;32.17;;;;;;;;;;6208520;23;20021;-49
2022/03/27 01:56:18;;;;;;;58.40;29.88;;;;;;;;;;6205407;23;20009;-48
2022/03/27 01:58:44;;;;;;;71.43;33.17;;;;;;;;;;6209568;23;20019;-49
2022/03/27 02:01:09;;;;;;;70.03;34.20;;;;;;;;;;6205989;23;20564;-50
2022/03/27 02:03:34;;;;;;;71.80;31.55;;;;;;;;;;6207671;23;20698;-47
2022/03/27 02:06:00;;;;;;;63.97;31.77;;;;;;;;;;6206128;23;20012;-50
2022/03/27 02:08:25;;;;;;;63.03;31.08;;;;;;;;;;6208206;23;20013;-52
2022/03/27 02:10:51;;;;;;;63.70;31.05;;;;;;;;;;6206868;23;20628;-48
2022/03/27 02:13:18;;;;;;;64.60;31.15;;;;;;;;;;6180245;23;20025;-55
2022/03/27 02:15:45;;;;;;;67.03;31.13;;;;;;;;;;6179161;23;20035;-48
2022/03/27 02:18:11;;;;;;;61.47;30.90;;;;;;;;;;6206813;23;20005;-50
2022/03/27 02:20:36;;;;;;;60.78;28.83;;;;;;;;;;6199905;23;20008;-52
2022/03/27 02:23:02;;;;;;;62.67;31.52;;;;;;;;;;6206889;23;20017;-52
2022/03/27 02:25:27;;;;;;;64.60;30.83;;;;;;;;;;6207760;23;20013;-49
2022/03/27 02:27:52;;;;;;;60.22;30.65;;;;;;;;;;6208262;23;20016;-48
2022/03/27 02:30:19;;;;;;;68.40;31.50;;;;;;;;;;6207333;23;20036;-50
2022/03/27 02:32:45;;;;;;;60.45;30.63;;;;;;;;;;6181717;23;20024;-48
2022/03/27 02:35:10;;;;;;;62.13;31.73;;;;;;;;;;6206924;23;20047;-47
2022/03/27 02:37:35;;;;;;;66.28;30.05;;;;;;;;;;6206165;23;20040;-53
2022/03/27 02:40:01;;;;;;;65.63;30.95;;;;;;;;;;6208395;23;20016;-49
2022/03/27 02:42:26;;;;;;;64.28;29.70;;;;;;;;;;6206725;23;20036;-47
2022/03/27 02:44:51;;;;;;;59.92;30.92;;;;;;;;;;6206389;23;20068;-51
2022/03/27 02:47:17;;;;;;;61.85;29.38;;;;;;;;;;6206792;23;20015;-50
2022/03/27 02:49:42;;;;;;;58.45;29.73;;;;;;;;;;6173489;22;20025;-54
2022/03/27 02:52:07;;;;;;;63.83;31.58;;;;;;;;;;6153540;23;20478;-52
2022/03/27 02:54:33;;;;;;;68.70;31.88;;;;;;;;;;6178122;23;20072;-53
2022/03/27 02:56:58;;;;;;;58.65;31.80;;;;;;;;;;6178605;23;20009;-54
2022/03/27 02:59:25;;;;;;;62.60;31.67;;;;;;;;;;6166968;23;20032;-51
2022/03/27 03:01:51;;;;;;;65.85;30.35;;;;;;;;;;6178056;23;20020;-52
2022/03/27 03:04:16;;;;;;;60.80;30.73;;;;;;;;;;6178650;23;20013;-52
2022/03/27 03:06:42;;;;;;;59.33;31.83;;;;;;;;;;6178267;23;20471;-51
2022/03/27 03:09:07;;;;;;;61.90;30.30;;;;;;;;;;6176891;23;20044;-51
2022/03/27 03:11:33;;;;;;;66.28;30.67;;;;;;;;;;6178880;23;20005;-50
2022/03/27 03:13:58;;;;;;;60.05;31.55;;;;;;;;;;6178208;23;20457;-51
2022/03/27 03:16:24;;;;;;;69.75;33.00;;;;;;;;;;6179189;23;20013;-50
2022/03/27 03:18:50;;;;;;;63.25;30.88;;;;;;;;;;6180374;23;20009;-54
2022/03/27 03:21:16;;;;;;;70.32;33.70;;;;;;;;;;6177972;23;20017;-50
2022/03/27 03:23:41;;;;;;;60.75;30.38;;;;;;;;;;6178738;23;20009;-52
2022/03/27 03:26:07;;;;;;;54.22;28.88;;;;;;;;;;6176373;23;20009;-50
2022/03/27 03:28:32;;;;;;;58.95;30.67;;;;;;;;;;6176199;23;20017;-51
2022/03/27 03:30:57;;;;;;;67.22;33.30;;;;;;;;;;6176745;23;20009;-50
2022/03/27 03:33:22;;;;;;;59.08;30.65;;;;;;;;;;6176769;23;20084;-50
2022/03/27 03:35:48;;;;;;;60.83;29.73;;;;;;;;;;6176806;23;20005;-50
2022/03/27 03:38:13;;;;;;;60.80;32.13;;;;;;;;;;6176752;23;20065;-48
2022/03/27 03:40:40;;;;;;;70.93;32.92;;;;;;;;;;6180685;23;20005;-52
2022/03/27 03:43:05;;;;;;;67.20;33.28;;;;;;;;;;6176439;23;20023;-54
2022/03/27 03:45:31;;;;;;;70.25;34.97;;;;;;;;;;6179188;23;20040;-54
2022/03/27 03:47:56;;;;;;;77.05;34.30;;;;;;;;;;6165049;23;20017;-56
2022/03/27 03:50:21;;;;;;;67.80;34.40;;;;;;;;;;6169357;23;20051;-52
2022/03/27 03:52:46;;;;;;;74.15;34.22;;;;;;;;;;6190622;23;20044;-55
2022/03/27 03:55:12;;;;;;;79.40;36.13;;;;;;;;;;6200690;23;20019;-52
2022/03/27 03:57:37;;;;;;;69.53;33.88;;;;;;;;;;6200905;23;20048;-49
2022/03/27 04:00:03;;;;;;;67.68;33.55;;;;;;;;;;6199984;23;20012;-48
2022/03/27 04:02:28;;;;;;;83.90;36.80;;;;;;;;;;6202097;23;20017;-52
2022/03/27 04:04:54;;;;;;;71.32;34.08;;;;;;;;;;6199248;23;20017;-53
2022/03/27 04:07:19;;;;;;;80.38;35.85;;;;;;;;;;6201475;23;20008;-53
2022/03/27 04:09:44;;;;;;;70.45;34.90;;;;;;;;;;6203045;23;20017;-52
2022/03/27 04:12:10;;;;;;;78.32;34.38;;;;;;;;;;6202423;23;20020;-52
2022/03/27 04:14:36;;;;;;;77.55;34.63;;;;;;;;;;6174466;23;20012;-52
2022/03/27 04:17:01;;;;;;;72.32;36.05;;;;;;;;;;6173319;23;20013;-51
2022/03/27 04:19:27;;;;;;;73.50;34.95;;;;;;;;;;6203914;23;20014;-51
2022/03/27 04:21:52;;;;;;;72.97;32.88;;;;;;;;;;6205007;23;20013;-49
2022/03/27 04:24:17;;;;;;;67.70;33.90;;;;;;;;;;6207767;23;20708;-52
2022/03/27 04:26:43;;;;;;;84.65;36.55;;;;;;;;;;6205644;23;20012;-51
2022/03/27 04:29:10;;;;;;;72.30;34.05;;;;;;;;;;6208700;23;20024;-49
2022/03/27 04:31:35;;;;;;;72.80;37.22;;;;;;;;;;6207309;23;20012;-50
2022/03/27 04:34:01;;;;;;;75.35;35.80;;;;;;;;;;6201682;23;20028;-50
2022/03/27 04:36:26;;;;;;;70.25;33.22;;;;;;;;;;6192192;23;20017;-50
2022/03/27 04:38:51;;;;;;;74.95;35.45;;;;;;;;;;6201118;23;20092;-50
2022/03/27 04:41:17;;;;;;;79.15;35.50;;;;;;;;;;6175215;23;20027;-51
2022/03/27 04:43:47;;;;;;;70.30;34.97;;;;;;;;;;6201659;23;20013;-51
2022/03/27 04:46:12;;;;;;;;;;;;;;;;;;6202204;23;20013;-52
2022/03/27 04:48:37;;;;;;;70.88;34.28;;;;;;;;;;6201533;23;19931;-53
2022/03/27 04:51:02;;;;;;;71.55;36.53;;;;;;;;;;6201541;23;20055;-53
2022/03/27 04:53:28;;;;;;;77.35;36.10;;;;;;;;;;6199596;23;20044;-52
2022/03/27 04:55:53;;;;;;;75.95;34.75;;;;;;;;;;6205940;23;20012;-50
2022/03/27 04:58:19;;;;;;;75.25;34.85;;;;;;;;;;6198269;23;20019;-51
2022/03/27 05:00:45;;;;;;;69.32;32.22;;;;;;;;;;6201415;23;20015;-50
2022/03/27 05:03:11;;;;;;;70.90;32.83;;;;;;;;;;6208603;23;20013;-52
2022/03/27 05:05:36;;;;;;;80.18;34.10;;;;;;;;;;6205365;23;20437;-53
2022/03/27 05:08:02;;;;;;;70.90;33.08;;;;;;;;;;6209265;23;20001;-48
2022/03/27 05:10:27;;;;;;;77.85;36.25;;;;;;;;;;6206545;23;20116;-51
2022/03/27 05:12:52;;;;;;;73.82;34.53;;;;;;;;;;6182989;23;20017;-51
2022/03/27 05:15:18;;;;;;;77.28;37.78;;;;;;;;;;6207076;23;20019;-49
2022/03/27 05:17:46;;;;;;;76.22;33.92;;;;;;;;;;6210501;23;20060;-50
2022/03/27 05:20:12;;;;;;;73.82;34.58;;;;;;;;;;6207478;23;20016;-51
2022/03/27 05:22:37;;;;;;;74.07;35.85;;;;;;;;;;6207705;23;20039;-52
2022/03/27 05:25:02;;;;;;;79.55;38.55;;;;;;;;;;6207516;23;20013;-50
2022/03/27 05:27:27;;;;;;;85.68;37.17;;;;;;;;;;6208626;23;20419;-52
2022/03/27 05:29:53;;;;;;;80.18;36.72;;;;;;;;;;6208106;23;20012;-51
2022/03/27 05:32:18;;;;;;;79.78;34.78;;;;;;;;;;6204434;23;20362;-51
2022/03/27 05:34:43;;;;;;;75.68;34.75;;;;;;;;;;6206185;23;20012;-50
2022/03/27 05:37:08;;;;;;;82.25;36.30;;;;;;;;;;6206281;23;20075;-55
2022/03/27 05:39:34;;;;;;;76.50;34.75;;;;;;;;;;6207261;23;20253;-51
2022/03/27 05:41:59;;;;;;;80.80;36.45;;;;;;;;;;6207499;23;20318;-53
2022/03/27 05:44:24;;;;;;;82.75;35.55;;;;;;;;;;6205180;23;20019;-52
2022/03/27 05:46:50;;;;;;;75.50;35.78;;;;;;;;;;6208574;23;20525;-52
2022/03/27 05:49:15;;;;;;;78.30;36.92;;;;;;;;;;6204186;23;20020;-53
2022/03/27 05:51:40;;;;;;;76.78;35.45;;;;;;;;;;6206336;23;20032;-48
2022/03/27 05:54:05;;;;;;;72.68;34.45;;;;;;;;;;6208211;23;20312;-51
2022/03/27 05:56:31;;;;;;;81.10;37.45;;;;;;;;;;6206300;23;20008;-54
2022/03/27 05:58:56;;;;;;;76.00;38.03;;;;;;;;;;6209383;23;20024;-51
2022/03/27 06:01:21;;;;;;;79.30;35.88;;;;;;;;;;6205740;23;20876;-51
2022/03/27 06:03:47;;;;;;;77.63;34.25;;;;;;;;;;6209957;23;20082;-49
2022/03/27 06:06:13;;;;;;;85.05;33.65;;;;;;;;;;6207299;23;20729;-54
2022/03/27 06:08:38;;;;;;;71.25;34.95;;;;;;;;;;6206200;23;20027;-51
2022/03/27 06:11:05;;;;;;;78.18;35.70;;;;;;;;;;6206216;23;20024;-49
2022/03/27 06:13:30;;;;;;;71.82;35.33;;;;;;;;;;6202049;23;20035;-52
2022/03/27 06:15:55;;;;;;;76.75;35.22;;;;;;;;;;6198958;23;20005;-53
2022/03/27 06:18:21;;;;;;;84.75;38.45;;;;;;;;;;6198455;23;20366;-53
2022/03/27 06:20:46;;;;;;;71.50;34.38;;;;;;;;;;6171518;23;20013;-50
2022/03/27 06:23:13;;;;;;;81.35;36.83;;;;;;;;;;6194905;23;20301;-53
2022/03/27 06:25:38;;;;;;;76.32;35.63;;;;;;;;;;6165281;23;20020;-52
2022/03/27 06:28:04;;;;;;;82.30;36.80;;;;;;;;;;6167780;23;20009;-51
2022/03/27 06:30:30;;;;;;;77.55;33.80;;;;;;;;;;6171176;23;20027;-53
2022/03/27 06:32:56;;;;;;;68.35;32.88;;;;;;;;;;6174227;23;20032;-51
2022/03/27 06:35:22;;;;;;;69.00;33.92;;;;;;;;;;6175028;23;20062;-52
2022/03/27 06:37:48;;;;;;;71.90;31.95;;;;;;;;;;6178882;23;20009;-52
2022/03/27 06:40:14;;;;;;;72.78;33.63;;;;;;;;;;6174314;23;20020;-50
2022/03/27 06:42:40;;;;;;;72.25;33.47;;;;;;;;;;6178013;23;20401;-52
2022/03/27 06:45:06;;;;;;;69.28;31.75;;;;;;;;;;6175247;23;20370;-51
2022/03/27 06:47:32;;;;;;;71.68;34.03;;;;;;;;;;6171959;23;21769;-53
2022/03/27 06:49:57;;;;;;;64.50;29.92;;;;;;;;;;6173522;23;20028;-51
2022/03/27 06:52:23;;;;;;;68.22;32.45;;;;;;;;;;6171815;23;20082;-49
2022/03/27 06:54:49;;;;;;;74.18;33.97;;;;;;;;;;6178035;23;20019;-52
2022/03/27 06:57:14;;;;;;;88.63;34.03;;;;;;;;;;6174790;23;20065;-53
2022/03/27 07:05:09;;;;;;;68.32;31.92;;;;;;;;;;6178255;23;20020;-50
2022/03/27 07:07:35;;;;;;;65.40;30.55;;;;;;;;;;6176026;23;20037;-49
2022/03/27 07:10:00;;;;;;;65.95;32.83;;;;;;;;;;6177340;23;20009;-53
2022/03/27 07:12:26;;;;;;;73.30;33.28;;;;;;;;;;6175303;23;20024;-52
2022/03/27 07:14:51;;;;;;;77.75;31.02;;;;;;;;;;6178538;23;20020;-53
2022/03/27 07:17:17;;;;;;;71.43;33.40;;;;;;;;;;6175457;23;20017;-53
2022/03/27 07:19:43;;;;;;;74.05;34.63;;;;;;;;;;6177261;23;20037;-52
2022/03/27 07:22:08;;;;;;;70.15;31.15;;;;;;;;;;6175703;23;20028;-56
2022/03/27 07:24:34;;;;;;;70.68;30.17;;;;;;;;;;6179153;23;20016;-53
2022/03/27 07:26:59;;;;;;;63.67;29.30;;;;;;;;;;6177184;23;20005;-51
2022/03/27 07:29:24;;;;;;;59.67;28.15;;;;;;;;;;6150632;23;20019;-50
2022/03/27 07:31:49;;;;;;;68.55;29.17;;;;;;;;;;6177096;23;20028;-52
2022/03/27 07:34:16;;;;;;;71.18;30.70;;;;;;;;;;6178492;23;20024;-51
2022/03/27 07:36:41;;;;;;;80.28;29.25;;;;;;;;;;6176678;23;20009;-54
2022/03/27 07:39:06;;;;;;;77.20;30.38;;;;;;;;;;6179166;23;20080;-54
2022/03/27 07:41:32;;;;;;;77.30;32.40;;;;;;;;;;6176189;23;20076;-53
2022/03/27 07:43:57;;;;;;;68.88;29.67;;;;;;;;;;6178412;23;20005;-52
2022/03/27 07:46:22;;;;;;;63.85;27.58;;;;;;;;;;6176237;23;20052;-53
2022/03/27 07:48:48;;;;;;;64.90;26.92;;;;;;;;;;6179377;23;20363;-49
2022/03/27 07:51:13;;;;;;;59.13;26.60;;;;;;;;;;6175998;23;20025;-50
2022/03/27 07:53:38;;;;;;;69.57;27.10;;;;;;;;;;6178648;23;20085;-55
2022/03/27 07:56:05;;;;;;;73.53;30.67;;;;;;;;;;6177312;23;20020;-53
2022/03/27 07:58:30;;;;;;;58.15;28.27;;;;;;;;;;6178019;23;20032;-53
2022/03/27 08:00:55;;;;;;;74.28;30.60;;;;;;;;;;6176732;23;20024;-51
2022/03/27 08:03:21;;;;;;;73.63;29.70;;;;;;;;;;6176349;23;20005;-54
2022/03/27 08:05:46;;;;;;;77.45;32.00;;;;;;;;;;6176820;23;20017;-54
2022/03/27 08:08:11;;;;;;;74.32;32.58;;;;;;;;;;6178112;23;19997;-54
2022/03/27 08:10:37;;;;;;;77.70;32.60;;;;;;;;;;6176062;23;20005;-52
2022/03/27 08:13:02;;;;;;;82.97;33.17;;;;;;;;;;6174254;23;20048;-52
2022/03/27 08:15:27;;;;;;;88.10;34.08;;;;;;;;;;6175601;23;20005;-51
2022/03/27 08:17:54;;;;;;;77.80;32.13;;;;;;;;;;6178336;23;20556;-51
2022/03/27 08:20:20;;;;;;;73.43;30.13;;;;;;;;;;6175578;23;20028;-53
2022/03/27 08:22:45;;;;;;;84.55;32.83;;;;;;;;;;6172854;23;20021;-53
2022/03/27 08:26:55;;;;;;;76.72;32.03;;;;;;;;;;6175559;23;20079;-54
2022/03/27 08:27:57;;;;;;;76.70;33.25;;;;;;;;;;6178486;23;20009;-54
2022/03/27 08:30:22;;;;;;;82.60;31.33;;;;;;;;;;6175221;23;20530;-54
2022/03/27 08:32:47;;;;;;;80.68;29.70;;;;;;;;;;6178015;23;20044;-49
2022/03/27 08:35:12;;;;;;;72.72;28.27;;;;;;;;;;6176244;23;20013;-54
2022/03/27 08:37:39;;;;;;;83.75;27.38;;;;;;;;;;6176332;23;20028;-52
2022/03/27 08:40:04;;;;;;;71.78;28.10;;;;;;;;;;6176624;23;20578;-55
2022/03/27 08:42:30;;;;;;;81.30;28.50;;;;;;;;;;6150394;23;20068;-49
2022/03/27 08:44:55;;;;;;;84.93;26.85;;;;;;;;;;6177943;23;20005;-52
2022/03/27 08:47:24;;;;;;;79.95;28.10;;;;;;;;;;6176335;23;20017;-55
2022/03/27 08:49:53;;;;;;;87.32;31.27;;;;;;;;;;6177469;23;20332;-55
2022/03/27 08:52:21;;;;;;;71.88;29.67;;;;;;;;;;6175405;23;20514;-53
2022/03/27 08:55:04;;;;;;;79.78;29.42;;;;;;;;;;6177689;23;20017;-54
2022/03/27 08:57:29;;;;;;;79.28;29.58;;;;;;;;;;6150394;23;20032;-50
2022/03/27 08:59:57;;;;;;;77.45;29.85;;;;;;;;;;6176110;23;20009;-52
2022/03/27 09:02:25;;;;;;;80.15;28.27;;;;;;;;;;6175540;23;20068;-53
2022/03/27 09:04:54;;;;;;;60.97;27.05;;;;;;;;;;6177682;23;20013;-53
2022/03/27 09:07:22;;;;;;;68.07;29.07;;;;;;;;;;6175886;23;20020;-50
2022/03/27 09:09:47;;;;;;;69.53;29.50;;;;;;;;;;6177261;23;20009;-54
2022/03/27 09:12:14;;;;;;;67.88;25.90;;;;;;;;;;6176457;23;20111;-53
2022/03/27 09:14:40;;;;;;;68.70;23.88;;;;;;;;;;6177290;23;20013;-51
2022/03/27 09:17:06;;;;;;;55.78;21.52;;;;;;;;;;6177994;23;20039;-55
2022/03/27 09:19:35;;;;;;;58.90;23.30;;;;;;;;;;6175032;23;20808;-51
2022/03/27 09:22:21;;;;;;;50.85;22.08;;;;;;;;;;6175955;23;20430;-55
2022/03/27 09:24:47;;;;;;;55.20;21.63;;;;;;;;;;6177479;23;20017;-51
2022/03/27 09:27:16;;;;;;;55.70;22.50;;;;;;;;;;6176470;23;20008;-51
2022/03/27 09:29:55;;;;;;;65.93;24.40;;;;;;;;;;6177169;23;20442;-54
2022/03/27 09:32:26;;;;;;;50.58;20.30;;;;;;;;;;6175307;23;20403;-54
2022/03/27 09:35:04;;;;;;;44.92;19.35;;;;;;;;;;6176722;23;20017;-50
2022/03/27 09:37:30;;;;;;;45.90;19.05;;;;;;;;;;6177484;23;20450;-54
2022/03/27 09:39:56;;;;;;;43.40;18.60;;;;;;;;;;6176862;23;20014;-52
2022/03/27 09:42:21;;;;;;;36.78;17.52;;;;;;;;;;6175428;23;20024;-50
2022/03/27 09:44:47;;;;;;;36.40;16.25;;;;;;;;;;6176989;23;20013;-51
2022/03/27 09:47:12;;;;;;;45.38;19.30;;;;;;;;;;6175825;23;20023;-55
2022/03/27 09:49:42;;;;;;;37.90;17.98;;;;;;;;;;6177242;23;20009;-53
2022/03/27 09:52:10;;;;;;;43.17;17.85;;;;;;;;;;6176650;23;20017;-53
2022/03/27 09:54:53;;;;;;;45.60;20.25;;;;;;;;;;6175301;23;20015;-53
2022/03/27 09:57:19;;;;;;;41.90;18.85;;;;;;;;;;6150018;23;20072;-52
2022/03/27 09:59:46;;;;;;;35.13;17.02;;;;;;;;;;6177927;23;20032;-52
2022/03/27 10:02:30;;;;;;;40.63;17.98;;;;;;;;;;6176043;23;20025;-52
2022/03/27 10:05:06;;;;;;;44.78;19.50;;;;;;;;;;6176443;23;20013;-53
2022/03/27 10:07:42;;;;;;;47.67;20.52;;;;;;;;;;6175438;23;20025;-52
2022/03/27 10:10:11;;;;;;;38.90;17.60;;;;;;;;;;6177038;23;20296;-51
2022/03/27 10:12:38;;;;;;;34.97;15.93;;;;;;;;;;6176998;23;20026;-52
2022/03/27 10:15:08;;;;;;;38.00;16.15;;;;;;;;;;6174495;23;20017;-51
2022/03/27 10:17:34;;;;;;;34.97;15.73;;;;;;;;;;6175742;23;20095;-52
2022/03/27 10:20:03;;;;;;;32.47;14.25;;;;;;;;;;6175994;23;20628;-54
2022/03/27 10:22:28;;;;;;;35.30;16.60;;;;;;;;;;6177118;23;20036;-54
2022/03/27 10:24:55;;;;;;;35.85;15.45;;;;;;;;;;6177019;23;20017;-52
2022/03/27 10:27:20;;;;;;;32.85;15.10;;;;;;;;;;6177630;23;20013;-53
2022/03/27 10:29:47;;;;;;;34.97;16.20;;;;;;;;;;6178184;23;20028;-51
2022/03/27 10:32:12;;;;;;;28.73;14.90;;;;;;;;;;6177914;23;20016;-54
2022/03/27 10:34:43;;;;;;;31.40;13.73;;;;;;;;;;6150983;23;20005;-53
2022/03/27 10:37:26;;;;;;;33.30;15.05;;;;;;;;;;6179335;23;20013;-53
2022/03/27 10:39:51;;;;;;;29.90;14.43;;;;;;;;;;6178492;23;20017;-54
2022/03/27 10:42:39;;;;;;;31.77;13.73;;;;;;;;;;6177725;23;20028;-53
2022/03/27 10:45:18;;;;;;;26.50;12.55;;;;;;;;;;6178626;23;20060;-55
2022/03/27 10:48:03;;;;;;;28.48;14.30;;;;;;;;;;6178866;23;20013;-52
2022/03/27 10:50:28;;;;;;;25.75;12.32;;;;;;;;;;6177155;23;20024;-54
2022/03/27 10:52:54;;;;;;;25.98;12.45;;;;;;;;;;6177134;23;20017;-51
2022/03/27 10:55:19;;;;;;;26.10;12.15;;;;;;;;;;6176597;23;20045;-52
2022/03/27 10:57:46;;;;;;;22.67;11.50;;;;;;;;;;6178381;23;20009;-54
2022/03/27 11:00:12;;;;;;;21.95;11.30;;;;;;;;;;6177341;23;20040;-53
2022/03/27 11:02:41;;;;;;;25.27;11.88;;;;;;;;;;6176329;23;20017;-53
2022/03/27 11:05:07;;;;;;;25.05;13.18;;;;;;;;;;6179109;23;20013;-52
2022/03/27 11:07:32;;;;;;;26.50;11.70;;;;;;;;;;6176259;23;20024;-53
2022/03/27 11:09:57;;;;;;;27.60;14.48;;;;;;;;;;6178871;23;20020;-52
2022/03/27 11:12:24;;;;;;;32.33;16.10;;;;;;;;;;6173785;23;20017;-54
2022/03/27 11:14:52;;;;;;;29.15;17.30;;;;;;;;;;6179160;23;20095;-55
2022/03/27 11:17:28;;;;;;;23.27;12.57;;;;;;;;;;6174721;23;20069;-54
2022/03/27 11:19:54;;;;;;;22.73;10.93;;;;;;;;;;6176710;23;20499;-51
2022/03/27 11:22:37;;;;;;;20.52;11.25;;;;;;;;;;6173853;23;20706;-54
2022/03/27 11:25:21;;;;;;;18.88;11.57;;;;;;;;;;6177753;23;20028;-50
2022/03/27 11:27:53;;;;;;;19.85;10.82;;;;;;;;;;6179078;23;20703;-52
2022/03/27 11:30:18;;;;;;;17.88;9.43;;;;;;;;;;6175482;23;20005;-53
2022/03/27 11:33:03;;;;;;;19.27;9.70;;;;;;;;;;6178986;23;20074;-52
2022/03/27 11:35:28;;;;;;;18.67;9.20;;;;;;;;;;6176290;23;20013;-50
2022/03/27 11:38:26;;;;;;;17.92;10.07;;;;;;;;;;6179010;23;20013;-54
2022/03/27 11:40:51;;;;;;;18.58;9.77;;;;;;;;;;6112296;23;20017;-53
2022/03/27 11:43:26;;;;;;;16.90;9.55;;;;;;;;;;6175887;23;20020;-53
2022/03/27 11:45:52;;;;;;;17.30;10.00;;;;;;;;;;6178497;23;20009;-52
2022/03/27 11:48:17;;;;;;;20.10;9.63;;;;;;;;;;6176523;23;20028;-50
2022/03/27 11:50:43;;;;;;;18.58;10.15;;;;;;;;;;6178877;23;20077;-51
2022/03/27 11:53:09;;;;;;;21.92;11.32;;;;;;;;;;6175911;23;20048;-54
2022/03/27 11:55:35;;;;;;;17.25;8.40;;;;;;;;;;6149469;23;20534;-52
2022/03/27 11:58:03;;;;;;;25.40;11.80;;;;;;;;;;6175468;23;20013;-50
2022/03/27 12:00:31;;;;;;;18.77;10.98;;;;;;;;;;6176898;23;20035;-55
2022/03/27 12:02:57;;;;;;;22.83;11.90;;;;;;;;;;6175127;23;20013;-55
2022/03/27 12:05:30;;;;;;;25.13;13.40;;;;;;;;;;6175016;23;20013;-51
2022/03/27 12:07:56;;;;;;;23.23;10.80;;;;;;;;;;6151164;23;20536;-56
2022/03/27 12:10:22;;;;;;;19.80;10.48;;;;;;;;;;6175691;23;20052;-53
2022/03/27 12:12:55;;;;;;;23.08;12.25;;;;;;;;;;6178982;23;20024;-52
2022/03/27 12:15:20;;;;;;;24.65;13.57;;;;;;;;;;6175445;23;20017;-51
2022/03/27 12:17:46;;;;;;;24.10;12.00;;;;;;;;;;6175632;23;20017;-53
2022/03/27 12:20:11;;;;;;;22.70;11.18;;;;;;;;;;6177107;23;20336;-52
2022/03/27 12:22:37;;;;;;;25.73;11.52;;;;;;;;;;6176719;23;20013;-53
2022/03/27 12:25:04;;;;;;;24.52;12.63;;;;;;;;;;6175935;23;20009;-50
2022/03/27 12:30:13;;;;;;;23.10;12.38;;;;;;;;;;6176054;23;20040;-52
2022/03/27 12:32:38;;;;;;;22.05;11.80;;;;;;;;;;6176514;23;20017;-53
2022/03/27 12:35:06;;;;;;;23.50;13.02;;;;;;;;;;6177571;23;20012;-49
2022/03/27 12:37:33;;;;;;;28.38;13.65;;;;;;;;;;6176389;23;20012;-53
2022/03/27 12:39:58;;;;;;;25.77;13.02;;;;;;;;;;6176958;23;20462;-50
2022/03/27 12:42:32;;;;;;;28.02;13.68;;;;;;;;;;6174581;23;20013;-49
2022/03/27 12:45:07;;;;;;;25.77;14.13;;;;;;;;;;6177279;23;20021;-48
2022/03/27 12:47:34;;;;;;;29.58;14.38;;;;;;;;;;6176219;23;20101;-48
2022/03/27 12:49:59;;;;;;;27.85;13.77;;;;;;;;;;6176520;23;20180;-53
2022/03/27 12:52:24;;;;;;;25.30;14.18;;;;;;;;;;6174487;23;20144;-52
2022/03/27 12:54:57;;;;;;;28.50;13.25;;;;;;;;;;6176831;23;20039;-50
2022/03/27 12:57:22;;;;;;;27.52;13.45;;;;;;;;;;6175716;23;20009;-53
2022/03/27 12:59:49;;;;;;;24.35;12.77;;;;;;;;;;6175894;23;20024;-48
2022/03/27 13:02:24;;;;;;;22.35;11.70;;;;;;;;;;6175352;23;20009;-49
2022/03/27 13:04:56;;;;;;;19.45;10.50;;;;;;;;;;6178187;23;20396;-50
2022/03/27 13:07:41;;;;;;;27.95;12.10;;;;;;;;;;6174238;23;20024;-49
2022/03/27 13:10:10;;;;;;;22.77;12.82;;;;;;;;;;6176735;23;20008;-51
2022/03/27 13:12:35;;;;;;;24.63;11.60;;;;;;;;;;6176414;23;20024;-51
2022/03/27 13:15:02;;;;;;;22.73;13.13;;;;;;;;;;6174427;23;20691;-52
2022/03/27 13:17:27;;;;;;;20.48;11.00;;;;;;;;;;6176188;23;20016;-51
2022/03/27 13:19:53;;;;;;;19.85;12.60;;;;;;;;;;6175034;23;20017;-51
2022/03/27 13:22:18;;;;;;;25.70;14.27;;;;;;;;;;6175821;23;20147;-49
2022/03/27 13:24:48;;;;;;;26.38;14.30;;;;;;;;;;6177430;23;20013;-57
2022/03/27 13:27:13;;;;;;;23.05;12.75;;;;;;;;;;6176508;23;20009;-51
2022/03/27 13:29:38;;;;;;;23.70;13.02;;;;;;;;;;6175869;23;20009;-54
2022/03/27 13:32:05;;;;;;;25.40;13.60;;;;;;;;;;6177512;23;20023;-49
2022/03/27 13:34:30;;;;;;;21.48;12.45;;;;;;;;;;6174821;23;20028;-48
2022/03/27 13:36:56;;;;;;;25.00;12.73;;;;;;;;;;6177802;23;20009;-52
2022/03/27 13:39:22;;;;;;;20.63;12.93;;;;;;;;;;6175506;23;20013;-49
2022/03/27 13:44:32;;;;;;;22.77;13.10;;;;;;;;;;6169747;23;21900;-50
2022/03/27 13:46:58;;;;;;;22.38;12.85;;;;;;;;;;6175271;23;20785;-52
2022/03/27 13:49:23;;;;;;;24.13;13.07;;;;;;;;;;6171666;23;20362;-49
2022/03/27 13:51:49;;;;;;;21.30;11.48;;;;;;;;;;6170577;23;20297;-51
2022/03/27 13:54:15;;;;;;;17.52;10.55;;;;;;;;;;6143997;23;20025;-50
2022/03/27 13:56:40;;;;;;;24.77;14.07;;;;;;;;;;6174075;23;20063;-51
2022/03/27 13:59:10;;;;;;;21.00;11.95;;;;;;;;;;6171113;23;20012;-49
2022/03/27 14:01:36;;;;;;;22.88;14.27;;;;;;;;;;6172028;23;20017;-53
2022/03/27 14:04:06;;;;;;;28.95;14.45;;;;;;;;;;6174205;23;20009;-51
2022/03/27 14:06:31;;;;;;;23.50;13.30;;;;;;;;;;6146739;23;20104;-53
2022/03/27 14:08:57;;;;;;;20.35;12.07;;;;;;;;;;6145150;23;20413;-52
2022/03/27 14:11:23;;;;;;;21.27;11.77;;;;;;;;;;6172424;23;20735;-50
2022/03/27 14:13:48;;;;;;;25.85;12.73;;;;;;;;;;6170192;23;20031;-53
2022/03/27 14:16:13;;;;;;;22.42;11.98;;;;;;;;;;6172741;23;20454;-51
2022/03/27 14:18:39;;;;;;;20.65;11.30;;;;;;;;;;6172991;23;20013;-51
2022/03/27 14:21:04;;;;;;;17.95;10.57;;;;;;;;;;6170516;23;20017;-54
2022/03/27 14:23:29;;;;;;;15.15;10.05;;;;;;;;;;6169811;23;20096;-47
2022/03/27 14:25:57;;;;;;;16.70;9.68;;;;;;;;;;6168007;23;20013;-51
2022/03/27 14:28:23;;;;;;;9.57;4.88;;;;;;;;;;6172637;23;20008;-53